createdAt,value
2023-02-12T00:00:25.082Z,33.40
2023-02-12T00:01:11.906Z,33.05
2023-02-12T00:01:53.673Z,34.00
2023-02-12T00:02:35.452Z,31.95
2023-02-12T00:03:17.318Z,33.88
2023-02-12T00:03:59.209Z,33.33
2023-02-12T00:04:43.423Z,33.38
2023-02-12T00:05:25.382Z,33.72
2023-02-12T00:06:09.050Z,34.45
2023-02-12T00:06:50.912Z,33.08
2023-02-12T00:07:32.625Z,32.72
2023-02-12T00:08:16.273Z,33.78
2023-02-12T00:08:59.677Z,33.63
2023-02-12T00:09:41.496Z,32.25
2023-02-12T00:10:23.374Z,31.88
2023-02-12T00:11:16.243Z,33.67
2023-02-12T00:11:58.003Z,33.15
2023-02-12T00:12:39.856Z,33.78
2023-02-12T00:13:21.721Z,32.97
2023-02-12T00:14:05.059Z,32.47
2023-02-12T00:14:46.934Z,33.00
2023-02-12T00:15:28.700Z,32.33
2023-02-12T00:16:15.616Z,32.63
2023-02-12T00:16:57.394Z,33.33
2023-02-12T00:17:39.168Z,32.92
2023-02-12T00:18:20.955Z,31.33
2023-02-12T00:19:02.811Z,31.60
2023-02-12T00:19:44.605Z,32.78
2023-02-12T00:20:26.359Z,33.50
2023-02-12T00:21:11.339Z,31.73
2023-02-12T00:21:53.102Z,34.30
2023-02-12T00:22:34.853Z,31.75
2023-02-12T00:23:18.970Z,32.45
2023-02-12T00:24:00.659Z,32.20
2023-02-12T00:24:42.448Z,32.67
2023-02-12T00:25:24.175Z,33.88
2023-02-12T00:26:10.847Z,33.08
2023-02-12T00:26:52.577Z,32.30
2023-02-12T00:27:35.218Z,32.40
2023-02-12T00:28:16.938Z,31.38
2023-02-12T00:28:58.740Z,31.80
2023-02-12T00:29:40.520Z,32.00
2023-02-12T00:30:22.395Z,31.02
2023-02-12T00:31:13.635Z,30.63
2023-02-12T00:31:55.600Z,30.83
2023-02-12T00:32:37.415Z,31.10
2023-02-12T00:33:19.183Z,32.40
2023-02-12T00:34:00.956Z,31.60
2023-02-12T00:34:42.635Z,33.15
2023-02-12T00:35:24.319Z,31.92
2023-02-12T00:36:06.992Z,32.47
2023-02-12T00:36:48.727Z,33.40
2023-02-12T00:37:30.428Z,32.97
2023-02-12T00:38:12.178Z,33.33
2023-02-12T00:38:55.221Z,34.78
2023-02-12T00:39:38.054Z,33.40
2023-02-12T00:40:19.956Z,30.65
2023-02-12T00:41:01.747Z,31.80
2023-02-12T00:41:43.551Z,33.05
2023-02-12T00:42:25.274Z,33.30
2023-02-12T00:43:07.079Z,33.95
2023-02-12T00:43:49.424Z,33.28
2023-02-12T00:44:31.370Z,31.73
2023-02-12T00:45:13.095Z,32.63
2023-02-12T00:45:55.256Z,33.75
2023-02-12T00:46:37.969Z,33.47
2023-02-12T00:47:22.528Z,33.08
2023-02-12T00:48:05.028Z,33.00
2023-02-12T00:48:46.920Z,33.28
2023-02-12T00:49:34.097Z,33.95
2023-02-12T00:50:16.017Z,33.83
2023-02-12T00:50:57.752Z,35.17
2023-02-12T00:51:39.608Z,35.70
2023-02-12T00:52:21.335Z,34.22
2023-02-12T00:53:03.046Z,33.25
2023-02-12T00:53:44.844Z,35.33
2023-02-12T00:54:27.016Z,35.45
2023-02-12T00:55:09.321Z,33.97
2023-02-12T00:55:51.134Z,34.97
2023-02-12T00:56:32.909Z,35.55
2023-02-12T00:57:14.711Z,33.78
2023-02-12T00:57:56.416Z,34.65
2023-02-12T00:58:38.134Z,35.58
2023-02-12T00:59:19.865Z,34.97
2023-02-12T01:00:01.635Z,34.38
2023-02-12T01:00:43.799Z,33.75
2023-02-12T01:01:25.734Z,33.80
2023-02-12T01:02:07.582Z,34.58
2023-02-12T01:02:49.382Z,37.28
2023-02-12T01:03:31.265Z,36.53
2023-02-12T01:04:13.023Z,36.47
2023-02-12T01:04:54.972Z,36.53
2023-02-12T01:05:37.176Z,38.50
2023-02-12T01:06:18.910Z,37.90
2023-02-12T01:07:00.656Z,34.92
2023-02-12T01:07:42.488Z,34.05
2023-02-12T01:08:24.252Z,35.17
2023-02-12T01:09:05.996Z,37.10
2023-02-12T01:09:47.790Z,37.10
2023-02-12T01:10:29.687Z,34.50
2023-02-12T01:11:13.581Z,35.25
2023-02-12T01:11:55.424Z,36.78
2023-02-12T01:12:37.138Z,36.20
2023-02-12T01:13:19.018Z,33.65
2023-02-12T01:14:00.775Z,33.75
2023-02-12T01:14:42.468Z,34.25
2023-02-12T01:15:24.694Z,34.28
2023-02-12T01:16:16.169Z,36.08
2023-02-12T01:16:57.922Z,35.05
2023-02-12T01:17:40.001Z,35.45
2023-02-12T01:18:21.720Z,35.58
2023-02-12T01:19:04.845Z,34.78
2023-02-12T01:19:46.542Z,34.72
2023-02-12T01:20:28.338Z,35.45
2023-02-12T01:21:19.098Z,34.63
2023-02-12T01:22:00.894Z,35.53
2023-02-12T01:22:42.738Z,34.40
2023-02-12T01:23:24.962Z,35.83
2023-02-12T01:24:06.851Z,32.95
2023-02-12T01:24:48.621Z,32.47
2023-02-12T01:25:30.385Z,33.58
2023-02-12T01:26:13.249Z,35.27
2023-02-12T01:26:54.966Z,35.75
2023-02-12T01:27:36.900Z,35.38
2023-02-12T01:28:18.807Z,34.88
2023-02-12T01:29:04.312Z,34.70
2023-02-12T01:29:46.133Z,33.85
2023-02-12T01:30:27.945Z,33.25
2023-02-12T01:31:21.641Z,34.03
2023-02-12T01:32:03.731Z,34.47
2023-02-12T01:32:45.578Z,33.53
2023-02-12T01:33:27.301Z,33.40
2023-02-12T01:34:11.254Z,32.78
2023-02-12T01:34:53.110Z,33.78
2023-02-12T01:35:34.868Z,33.65
2023-02-12T01:36:16.862Z,33.08
2023-02-12T01:36:58.651Z,33.47
2023-02-12T01:37:40.386Z,33.33
2023-02-12T01:38:22.124Z,34.00
2023-02-12T01:39:05.267Z,35.20
2023-02-12T01:39:47.009Z,34.33
2023-02-12T01:40:28.728Z,35.20
2023-02-12T01:41:22.106Z,33.38
2023-02-12T01:42:06.023Z,34.75
2023-02-12T01:42:47.798Z,35.15
2023-02-12T01:43:29.583Z,34.10
2023-02-12T01:44:23.502Z,33.40
2023-02-12T01:45:14.341Z,34.15
2023-02-12T01:45:56.415Z,35.85
2023-02-12T01:46:39.233Z,34.05
2023-02-12T01:47:20.966Z,35.22
2023-02-12T01:48:02.897Z,34.92
2023-02-12T01:48:48.137Z,35.03
2023-02-12T01:49:38.796Z,34.28
2023-02-12T01:50:21.337Z,32.53
2023-02-12T01:51:04.224Z,33.83
2023-02-12T01:51:47.037Z,34.60
2023-02-12T01:52:36.267Z,34.97
2023-02-12T01:53:20.647Z,33.78
2023-02-12T01:54:06.095Z,32.97
2023-02-12T01:54:49.061Z,33.42
2023-02-12T01:55:30.821Z,32.90
2023-02-12T01:56:13.184Z,33.88
2023-02-12T01:56:55.517Z,33.88
2023-02-12T01:57:40.957Z,34.22
2023-02-12T01:58:25.153Z,34.90
2023-02-12T01:59:07.410Z,35.38
2023-02-12T01:59:52.957Z,34.22
2023-02-12T02:00:34.713Z,33.28
2023-02-12T02:01:29.341Z,33.97
2023-02-12T02:02:11.316Z,34.28
2023-02-12T02:02:58.425Z,33.28
2023-02-12T02:03:45.464Z,35.00
2023-02-12T02:04:31.696Z,34.75
2023-02-12T02:05:18.416Z,34.22
2023-02-12T02:06:06.608Z,32.70
2023-02-12T02:06:58.331Z,32.30
2023-02-12T02:07:43.438Z,33.75
2023-02-12T02:08:25.646Z,33.67
2023-02-12T02:09:07.776Z,33.95
2023-02-12T02:09:50.568Z,32.97
2023-02-12T02:10:32.440Z,34.03
2023-02-12T02:11:32.713Z,33.65
2023-02-12T02:12:33.380Z,33.70
2023-02-12T02:13:33.912Z,32.63
2023-02-12T02:14:34.137Z,34.25
2023-02-12T02:15:15.943Z,33.67
2023-02-12T02:16:05.311Z,34.38
2023-02-12T02:17:17.570Z,33.60
2023-02-12T02:18:09.026Z,34.22
2023-02-12T02:19:03.149Z,33.17
2023-02-12T02:20:16.338Z,34.75
2023-02-12T02:21:18.933Z,33.25
2023-02-12T02:22:12.709Z,34.35
2023-02-12T02:23:00.542Z,34.17
2023-02-12T02:24:10.027Z,33.10
2023-02-12T02:25:29.752Z,34.50
2023-02-12T02:26:22.973Z,33.10
2023-02-12T02:27:28.071Z,34.45
2023-02-12T02:28:47.201Z,33.75
2023-02-12T02:30:04.135Z,33.45
2023-02-12T02:31:06.234Z,35.40
2023-02-12T02:31:56.486Z,35.08
2023-02-12T02:33:09.589Z,34.08
2023-02-12T02:34:28.315Z,34.30
2023-02-12T02:35:27.916Z,34.47
2023-02-12T02:36:59.823Z,36.20
2023-02-12T02:38:06.070Z,34.88
2023-02-12T02:39:17.265Z,35.75
2023-02-12T02:40:07.931Z,35.58
2023-02-12T02:41:03.337Z,32.92
2023-02-12T02:41:53.628Z,33.97
2023-02-12T02:42:47.223Z,33.90
2023-02-12T02:43:35.298Z,33.35
2023-02-12T02:44:22.602Z,34.10
2023-02-12T02:45:14.674Z,33.67
2023-02-12T02:46:03.029Z,32.70
2023-02-12T02:46:50.434Z,33.67
2023-02-12T02:48:08.102Z,34.10
2023-02-12T02:48:56.229Z,33.75
2023-02-12T02:49:45.448Z,33.33
2023-02-12T02:50:30.441Z,36.25
2023-02-12T02:51:16.405Z,34.45
2023-02-12T02:52:12.321Z,32.83
2023-02-12T02:53:00.118Z,34.20
2023-02-12T02:53:51.549Z,33.58
2023-02-12T02:54:41.508Z,34.10
2023-02-12T02:55:28.470Z,33.30
2023-02-12T02:56:16.100Z,32.40
2023-02-12T02:57:09.927Z,32.92
2023-02-12T02:57:57.218Z,34.00
2023-02-12T02:59:01.158Z,33.78
2023-02-12T02:59:49.880Z,33.80
2023-02-12T03:00:47.210Z,31.55
2023-02-12T03:01:31.228Z,33.80
2023-02-12T03:02:25.089Z,33.33
2023-02-12T03:03:13.086Z,32.35
2023-02-12T03:04:07.914Z,36.13
2023-02-12T03:04:58.191Z,33.33
2023-02-12T03:05:44.204Z,33.97
2023-02-12T03:06:32.764Z,34.75
2023-02-12T03:07:27.242Z,35.88
2023-02-12T03:08:15.347Z,35.47
2023-02-12T03:09:02.292Z,35.53
2023-02-12T03:09:51.750Z,33.50
2023-02-12T03:10:42.409Z,34.67
2023-02-12T03:11:27.693Z,33.75
2023-02-12T03:12:19.506Z,33.72
2023-02-12T03:13:21.991Z,33.92
2023-02-12T03:14:03.777Z,36.00
2023-02-12T03:14:51.287Z,33.83
2023-02-12T03:15:41.347Z,33.47
2023-02-12T03:16:30.108Z,33.63
2023-02-12T03:17:22.210Z,32.80
2023-02-12T03:18:10.420Z,32.95
2023-02-12T03:19:10.852Z,33.65
2023-02-12T03:20:01.964Z,34.30
2023-02-12T03:20:49.475Z,34.20
2023-02-12T03:21:42.115Z,33.80
2023-02-12T03:22:30.892Z,34.10
2023-02-12T03:23:25.094Z,32.42
2023-02-12T03:24:16.475Z,33.42
2023-02-12T03:25:09.608Z,32.67
2023-02-12T03:25:58.761Z,33.17
2023-02-12T03:26:46.291Z,34.28
2023-02-12T03:27:43.497Z,34.10
2023-02-12T03:28:37.360Z,32.40
2023-02-12T03:29:21.926Z,33.15
2023-02-12T03:30:05.092Z,33.67
2023-02-12T03:30:53.980Z,34.67
2023-02-12T03:31:56.276Z,34.10
2023-02-12T03:33:10.067Z,34.72
2023-02-12T03:34:13.009Z,33.25
2023-02-12T03:35:22.124Z,34.85
2023-02-12T03:36:13.449Z,31.92
2023-02-12T03:37:33.815Z,33.78
2023-02-12T03:38:30.852Z,34.00
2023-02-12T03:39:28.828Z,35.83
2023-02-12T03:40:24.536Z,34.95
2023-02-12T03:41:29.623Z,33.25
2023-02-12T03:42:41.816Z,32.53
2023-02-12T03:43:28.399Z,32.40
2023-02-12T03:44:42.730Z,34.47
2023-02-12T03:45:42.547Z,34.08
2023-02-12T03:46:47.211Z,32.45
2023-02-12T03:47:31.624Z,32.10
2023-02-12T03:48:31.189Z,32.10
2023-02-12T03:49:29.589Z,32.40
2023-02-12T03:50:19.594Z,32.28
2023-02-12T03:51:20.775Z,31.98
2023-02-12T03:52:04.211Z,32.58
2023-02-12T03:52:47.093Z,35.78
2023-02-12T03:53:29.734Z,37.03
2023-02-12T03:54:14.144Z,35.53
2023-02-12T03:54:55.998Z,35.10
2023-02-12T03:55:42.407Z,36.53
2023-02-12T03:56:34.754Z,34.35
2023-02-12T03:57:21.602Z,34.22
2023-02-12T03:58:07.499Z,34.90
2023-02-12T03:58:49.217Z,34.38
2023-02-12T03:59:31.296Z,33.15
2023-02-12T04:00:18.671Z,33.00
2023-02-12T04:01:01.398Z,32.78
2023-02-12T04:01:43.348Z,33.92
2023-02-12T04:02:25.612Z,32.25
2023-02-12T04:03:07.738Z,33.03
2023-02-12T04:03:49.595Z,31.88
2023-02-12T04:04:32.316Z,34.30
2023-02-12T04:05:32.305Z,33.72
2023-02-12T04:06:31.397Z,32.42
2023-02-12T04:07:13.663Z,34.00
2023-02-12T04:07:58.116Z,33.00
2023-02-12T04:08:39.889Z,32.70
2023-02-12T04:09:22.978Z,33.63
2023-02-12T04:10:05.083Z,34.20
2023-02-12T04:10:58.705Z,34.10
2023-02-12T04:12:22.968Z,32.97
2023-02-12T04:13:18.972Z,34.07
2023-02-12T04:14:31.273Z,32.47
2023-02-12T04:15:23.884Z,34.00
2023-02-12T04:16:15.807Z,34.00
2023-02-12T04:17:03.156Z,34.35
2023-02-12T04:17:55.396Z,33.08
2023-02-12T04:18:46.045Z,33.42
2023-02-12T04:19:55.557Z,32.53
2023-02-12T04:20:37.255Z,33.92
2023-02-12T04:21:38.677Z,34.15
2023-02-12T04:22:54.314Z,32.70
2023-02-12T04:23:48.892Z,31.83
2023-02-12T04:24:54.782Z,33.45
2023-02-12T04:25:50.524Z,32.67
2023-02-12T04:26:55.996Z,33.55
2023-02-12T04:28:05.079Z,33.78
2023-02-12T04:28:54.018Z,35.15
2023-02-12T04:29:43.009Z,33.60
2023-02-12T04:30:34.399Z,33.35
2023-02-12T04:31:50.663Z,33.88
2023-02-12T04:32:48.840Z,31.58
2023-02-12T04:33:39.981Z,32.90
2023-02-12T04:34:35.368Z,33.42
2023-02-12T04:35:37.383Z,32.15
2023-02-12T04:36:25.954Z,35.00
2023-02-12T04:37:20.905Z,33.15
2023-02-12T04:38:17.654Z,34.08
2023-02-12T04:39:11.941Z,32.30
2023-02-12T04:39:54.550Z,33.45
2023-02-12T04:40:39.570Z,33.63
2023-02-12T04:41:21.908Z,32.78
2023-02-12T04:42:04.159Z,33.05
2023-02-12T04:42:51.752Z,32.90
2023-02-12T04:43:36.944Z,35.55
2023-02-12T04:44:23.535Z,33.83
2023-02-12T04:45:06.245Z,35.33
2023-02-12T04:45:48.079Z,35.47
2023-02-12T04:46:29.854Z,32.95
2023-02-12T04:47:16.529Z,34.42
2023-02-12T04:47:58.476Z,33.50
2023-02-12T04:48:55.649Z,32.63
2023-02-12T04:49:37.429Z,32.60
2023-02-12T04:50:19.408Z,31.92
2023-02-12T04:51:01.632Z,33.97
2023-02-12T04:51:43.941Z,32.63
2023-02-12T04:52:25.655Z,32.75
2023-02-12T04:53:08.021Z,32.65
2023-02-12T04:53:50.378Z,32.75
2023-02-12T04:54:32.106Z,33.50
2023-02-12T04:55:14.071Z,32.75
2023-02-12T04:55:56.192Z,33.15
2023-02-12T04:56:38.089Z,34.17
2023-02-12T04:57:19.838Z,33.00
2023-02-12T04:58:01.996Z,33.65
2023-02-12T04:58:43.975Z,34.30
2023-02-12T04:59:25.770Z,33.58
2023-02-12T05:00:09.506Z,35.10
2023-02-12T05:00:51.407Z,35.85
2023-02-12T05:01:37.147Z,35.65
2023-02-12T05:02:18.952Z,35.90
2023-02-12T05:03:00.755Z,34.50
2023-02-12T05:03:42.576Z,34.50
2023-02-12T05:04:24.379Z,33.72
2023-02-12T05:05:06.776Z,34.05
2023-02-12T05:05:48.512Z,34.97
2023-02-12T05:06:30.694Z,32.90
2023-02-12T05:07:12.570Z,33.15
2023-02-12T05:07:54.343Z,32.75
2023-02-12T05:08:36.142Z,32.25
2023-02-12T05:09:19.937Z,32.58
2023-02-12T05:10:01.773Z,32.58
2023-02-12T05:10:43.553Z,33.83
2023-02-12T05:11:25.479Z,34.00
2023-02-12T05:12:07.569Z,34.58
2023-02-12T05:12:52.434Z,34.38
2023-02-12T05:13:34.790Z,34.38
2023-02-12T05:14:16.924Z,34.35
2023-02-12T05:14:58.802Z,34.67
2023-02-12T05:15:40.622Z,34.13
2023-02-12T05:16:22.740Z,34.67
2023-02-12T05:17:04.495Z,34.78
2023-02-12T05:17:46.874Z,33.95
2023-02-12T05:18:28.646Z,35.33
2023-02-12T05:19:10.699Z,34.00
2023-02-12T05:19:52.553Z,33.40
2023-02-12T05:20:34.370Z,32.70
2023-02-12T05:21:16.970Z,32.35
2023-02-12T05:21:58.784Z,34.13
2023-02-12T05:22:40.693Z,33.97
2023-02-12T05:23:22.734Z,33.40
2023-02-12T05:24:04.914Z,32.47
2023-02-12T05:24:46.998Z,33.10
2023-02-12T05:25:28.855Z,34.63
2023-02-12T05:26:19.459Z,33.33
2023-02-12T05:27:01.362Z,34.97
2023-02-12T05:27:43.338Z,34.83
2023-02-12T05:28:25.242Z,34.92
2023-02-12T05:29:07.158Z,37.63
2023-02-12T05:29:48.866Z,36.63
2023-02-12T05:30:31.170Z,35.25
2023-02-12T05:31:21.152Z,35.10
2023-02-12T05:32:04.003Z,35.25
2023-02-12T05:32:45.978Z,33.92
2023-02-12T05:33:27.801Z,34.15
2023-02-12T05:34:13.647Z,34.15
2023-02-12T05:34:55.357Z,34.80
2023-02-12T05:35:37.221Z,33.88
2023-02-12T05:36:22.527Z,33.95
2023-02-12T05:37:04.331Z,35.22
2023-02-12T05:37:46.107Z,33.92
2023-02-12T05:38:27.894Z,34.75
2023-02-12T05:39:10.941Z,33.65
2023-02-12T05:39:53.841Z,33.67
2023-02-12T05:40:35.772Z,33.25
2023-02-12T05:41:21.271Z,33.65
2023-02-12T05:42:03.017Z,34.15
2023-02-12T05:42:44.811Z,31.50
2023-02-12T05:43:26.587Z,32.65
2023-02-12T05:44:08.993Z,34.33
2023-02-12T05:44:50.856Z,32.97
2023-02-12T05:45:33.516Z,34.33
2023-02-12T05:46:15.828Z,33.53
2023-02-12T05:47:00.196Z,35.20
2023-02-12T05:47:41.891Z,36.15
2023-02-12T05:48:23.803Z,33.10
2023-02-12T05:49:05.602Z,32.67
2023-02-12T05:49:47.481Z,32.92
2023-02-12T05:50:29.338Z,33.92
2023-02-12T05:51:21.708Z,34.83
2023-02-12T05:52:03.600Z,31.80
2023-02-12T05:52:45.581Z,32.38
2023-02-12T05:53:27.425Z,35.08
2023-02-12T05:54:10.728Z,35.30
2023-02-12T05:54:52.500Z,34.03
2023-02-12T05:55:34.247Z,33.78
2023-02-12T05:56:20.429Z,34.97
2023-02-12T05:57:02.179Z,34.67
2023-02-12T05:57:43.944Z,32.72
2023-02-12T05:58:25.663Z,33.10
2023-02-12T05:59:12.456Z,31.23
2023-02-12T05:59:54.316Z,32.45
2023-02-12T06:00:36.169Z,32.50
2023-02-12T06:01:27.934Z,33.45
2023-02-12T06:02:09.695Z,35.80
2023-02-12T06:02:51.542Z,34.30
2023-02-12T06:03:33.327Z,33.88
2023-02-12T06:04:21.693Z,33.97
2023-02-12T06:05:04.172Z,35.00
2023-02-12T06:05:51.201Z,34.15
2023-02-12T06:06:33.904Z,34.42
2023-02-12T06:07:15.645Z,35.20
2023-02-12T06:07:57.414Z,33.40
2023-02-12T06:08:39.724Z,32.95
2023-02-12T06:09:22.876Z,33.55
2023-02-12T06:10:04.990Z,34.60
2023-02-12T06:10:47.992Z,34.15
2023-02-12T06:11:29.735Z,35.30
2023-02-12T06:12:11.543Z,35.58
2023-02-12T06:12:56.314Z,34.38
2023-02-12T06:13:38.079Z,32.80
2023-02-12T06:14:20.926Z,31.90
2023-02-12T06:15:02.837Z,32.42
2023-02-12T06:15:44.634Z,35.58
2023-02-12T06:16:28.188Z,34.60
2023-02-12T06:17:09.988Z,34.50
2023-02-12T06:17:51.754Z,33.13
2023-02-12T06:18:36.245Z,33.17
2023-02-12T06:19:18.824Z,31.77
2023-02-12T06:20:00.721Z,31.85
2023-02-12T06:20:42.520Z,32.40
2023-02-12T06:21:25.990Z,32.28
2023-02-12T06:22:07.804Z,33.00
2023-02-12T06:22:49.608Z,32.90
2023-02-12T06:23:31.389Z,32.33
2023-02-12T06:24:14.817Z,33.17
2023-02-12T06:24:56.632Z,33.10
2023-02-12T06:25:38.562Z,33.58
2023-02-12T06:26:21.168Z,34.17
2023-02-12T06:27:03.431Z,34.67
2023-02-12T06:27:45.236Z,34.00
2023-02-12T06:28:27.235Z,32.88
2023-02-12T06:29:09.002Z,33.10
2023-02-12T06:29:50.766Z,32.53
2023-02-12T06:30:34.812Z,33.75
2023-02-12T06:31:22.473Z,33.60
2023-02-12T06:32:04.470Z,35.15
2023-02-12T06:32:50.164Z,34.53
2023-02-12T06:33:32.966Z,34.00
2023-02-12T06:34:18.055Z,35.03
2023-02-12T06:35:01.824Z,34.42
2023-02-12T06:35:43.541Z,33.13
2023-02-12T06:36:25.443Z,34.25
2023-02-12T06:37:07.464Z,34.88
2023-02-12T06:37:49.318Z,35.13
2023-02-12T06:38:31.081Z,34.80
2023-02-12T06:39:14.774Z,35.63
2023-02-12T06:39:56.492Z,35.50
2023-02-12T06:40:38.274Z,34.58
2023-02-12T06:41:20.927Z,34.03
2023-02-12T06:42:02.713Z,32.80
2023-02-12T06:42:44.457Z,35.17
2023-02-12T06:43:26.150Z,36.83
2023-02-12T06:44:07.972Z,34.97
2023-02-12T06:44:52.631Z,32.90
2023-02-12T06:45:34.821Z,32.38
2023-02-12T06:46:16.868Z,32.92
2023-02-12T06:46:59.115Z,33.40
2023-02-12T06:47:40.923Z,34.60
2023-02-12T06:48:22.705Z,35.42
2023-02-12T06:49:04.469Z,34.58
2023-02-12T06:49:46.159Z,34.88
2023-02-12T06:50:27.976Z,35.40
2023-02-12T06:51:13.906Z,34.75
2023-02-12T06:51:55.606Z,34.20
2023-02-12T06:52:37.318Z,34.00
2023-02-12T06:53:19.126Z,32.42
2023-02-12T06:54:00.848Z,33.42
2023-02-12T06:54:42.710Z,34.25
2023-02-12T06:55:24.467Z,34.70
2023-02-12T06:56:11.431Z,33.85
2023-02-12T06:56:53.159Z,33.42
2023-02-12T06:57:34.972Z,34.10
2023-02-12T06:58:16.718Z,33.25
2023-02-12T06:59:01.268Z,33.92
2023-02-12T06:59:43.070Z,33.97
2023-02-12T07:00:24.900Z,35.08
2023-02-12T07:01:17.616Z,37.30
2023-02-12T07:01:59.359Z,38.17
2023-02-12T07:02:41.068Z,34.92
2023-02-12T07:03:23.096Z,34.67
2023-02-12T07:04:05.087Z,34.50
2023-02-12T07:04:46.972Z,35.00
2023-02-12T07:05:28.676Z,33.78
2023-02-12T07:06:11.054Z,35.30
2023-02-12T07:06:52.807Z,32.78
2023-02-12T07:07:34.618Z,32.90
2023-02-12T07:08:16.778Z,35.47
2023-02-12T07:08:58.550Z,35.85
2023-02-12T07:09:40.293Z,37.17
2023-02-12T07:10:21.996Z,36.08
2023-02-12T07:11:04.233Z,37.28
2023-02-12T07:11:45.995Z,36.65
2023-02-12T07:12:27.764Z,36.08
2023-02-12T07:13:09.476Z,35.08
2023-02-12T07:13:51.180Z,36.28
2023-02-12T07:14:33.101Z,36.53
2023-02-12T07:15:15.411Z,34.78
2023-02-12T07:15:57.438Z,35.70
2023-02-12T07:16:39.358Z,34.25
2023-02-12T07:17:21.124Z,33.80
2023-02-12T07:18:02.833Z,34.92
2023-02-12T07:18:45.288Z,35.35
2023-02-12T07:19:27.083Z,35.50
2023-02-12T07:20:09.325Z,35.47
2023-02-12T07:20:51.051Z,35.63
2023-02-12T07:21:33.108Z,34.45
2023-02-12T07:22:14.841Z,35.53
2023-02-12T07:22:56.623Z,34.50
2023-02-12T07:23:39.164Z,36.35
2023-02-12T07:24:20.868Z,34.97
2023-02-12T07:25:02.652Z,34.67
2023-02-12T07:25:44.337Z,35.70
2023-02-12T07:26:26.132Z,34.53
2023-02-12T07:27:07.821Z,34.75
2023-02-12T07:27:49.559Z,34.50
2023-02-12T07:28:34.638Z,34.28
2023-02-12T07:29:17.103Z,34.38
2023-02-12T07:29:58.887Z,32.90
2023-02-12T07:30:42.622Z,35.28
2023-02-12T07:31:25.120Z,36.83
2023-02-12T07:32:07.278Z,36.30
2023-02-12T07:32:49.031Z,35.58
2023-02-12T07:33:30.771Z,35.30
2023-02-12T07:34:12.645Z,36.20
2023-02-12T07:34:54.429Z,35.40
2023-02-12T07:35:36.123Z,34.28
2023-02-12T07:36:19.467Z,35.35
2023-02-12T07:37:01.246Z,35.25
2023-02-12T07:37:42.941Z,35.10
2023-02-12T07:38:24.656Z,34.35
2023-02-12T07:39:06.445Z,33.83
2023-02-12T07:39:48.818Z,34.47
2023-02-12T07:40:30.565Z,36.35
2023-02-12T07:41:18.566Z,36.13
2023-02-12T07:42:00.364Z,34.45
2023-02-12T07:42:42.055Z,36.15
2023-02-12T07:43:23.781Z,36.70
2023-02-12T07:44:09.328Z,36.47
2023-02-12T07:44:51.022Z,37.45
2023-02-12T07:45:32.827Z,37.42
2023-02-12T07:46:20.950Z,36.58
2023-02-12T07:47:03.634Z,37.70
2023-02-12T07:47:45.342Z,38.35
2023-02-12T07:48:27.071Z,36.45
2023-02-12T07:49:13.468Z,37.13
2023-02-12T07:49:55.616Z,37.72
2023-02-12T07:50:37.401Z,37.55
2023-02-12T07:51:19.592Z,38.35
2023-02-12T07:52:01.361Z,40.55
2023-02-12T07:52:43.051Z,37.67
2023-02-12T07:53:27.666Z,38.60
2023-02-12T07:54:11.005Z,37.97
2023-02-12T07:54:52.676Z,36.15
2023-02-12T07:55:34.362Z,37.50
2023-02-12T07:56:17.936Z,37.10
2023-02-12T07:57:00.649Z,37.90
2023-02-12T07:57:42.732Z,37.30
2023-02-12T07:58:24.541Z,38.42
2023-02-12T07:59:13.543Z,39.03
2023-02-12T07:59:55.365Z,38.10
2023-02-12T08:00:37.081Z,38.20
2023-02-12T08:01:24.469Z,37.70
2023-02-12T08:02:06.512Z,36.60
2023-02-12T08:02:53.159Z,36.55
2023-02-12T08:03:34.866Z,36.92
2023-02-12T08:04:19.481Z,36.33
2023-02-12T08:05:01.360Z,38.55
2023-02-12T08:05:43.078Z,37.95
2023-02-12T08:06:27.191Z,37.40
2023-02-12T08:07:08.948Z,39.08
2023-02-12T08:07:50.697Z,38.47
2023-02-12T08:08:32.435Z,39.25
2023-02-12T08:09:17.485Z,38.20
2023-02-12T08:09:59.216Z,38.78
2023-02-12T08:10:40.892Z,37.78
2023-02-12T08:11:23.476Z,37.90
2023-02-12T08:12:05.413Z,39.05
2023-02-12T08:12:47.152Z,39.88
2023-02-12T08:13:28.863Z,37.50
2023-02-12T08:14:14.220Z,38.35
2023-02-12T08:14:55.929Z,37.63
2023-02-12T08:15:37.666Z,37.25
2023-02-12T08:16:22.705Z,36.53
2023-02-12T08:17:04.456Z,38.22
2023-02-12T08:17:46.191Z,37.25
2023-02-12T08:18:27.950Z,35.33
2023-02-12T08:19:19.459Z,36.40
2023-02-12T08:20:02.947Z,38.95
2023-02-12T08:20:44.714Z,38.33
2023-02-12T08:21:28.575Z,37.97
2023-02-12T08:22:10.364Z,37.28
2023-02-12T08:22:52.058Z,38.20
2023-02-12T08:23:34.627Z,39.15
2023-02-12T08:24:16.389Z,37.15
2023-02-12T08:24:58.118Z,37.72
2023-02-12T08:25:39.840Z,36.92
2023-02-12T08:26:22.775Z,38.17
2023-02-12T08:27:05.322Z,37.40
2023-02-12T08:27:47.009Z,37.33
2023-02-12T08:28:28.707Z,38.15
2023-02-12T08:29:15.913Z,38.33
2023-02-12T08:29:57.574Z,39.35
2023-02-12T08:30:39.450Z,39.75
2023-02-12T08:31:24.413Z,38.17
2023-02-12T08:32:10.507Z,38.42
2023-02-12T08:32:52.369Z,37.13
2023-02-12T08:33:34.353Z,39.75
2023-02-12T08:34:23.654Z,41.35
2023-02-12T08:35:05.820Z,39.30
2023-02-12T08:35:47.526Z,39.45
2023-02-12T08:36:35.213Z,40.47
2023-02-12T08:37:16.927Z,39.60
2023-02-12T08:37:58.629Z,38.75
2023-02-12T08:38:41.024Z,40.72
2023-02-12T08:39:24.461Z,39.55
2023-02-12T08:40:06.739Z,39.75
2023-02-12T08:40:48.569Z,40.22
2023-02-12T08:41:34.533Z,39.55
2023-02-12T08:42:16.337Z,40.08
2023-02-12T08:42:58.034Z,39.70
2023-02-12T08:43:40.959Z,40.47
2023-02-12T08:44:23.060Z,40.38
2023-02-12T08:45:05.387Z,37.85
2023-02-12T08:45:47.308Z,36.13
2023-02-12T08:46:34.882Z,36.63
2023-02-12T08:47:16.596Z,41.30
2023-02-12T08:47:58.363Z,39.60
2023-02-12T08:48:41.908Z,37.75
2023-02-12T08:49:26.703Z,37.20
2023-02-12T08:50:08.896Z,39.78
2023-02-12T08:50:50.603Z,38.47
2023-02-12T08:51:35.861Z,39.45
2023-02-12T08:52:19.409Z,37.40
2023-02-12T08:53:01.226Z,37.63
2023-02-12T08:53:45.062Z,38.53
2023-02-12T08:54:28.793Z,37.85
2023-02-12T08:55:10.460Z,37.65
2023-02-12T08:55:52.206Z,36.65
2023-02-12T08:56:35.910Z,37.42
2023-02-12T08:57:17.642Z,36.28
2023-02-12T08:57:59.355Z,37.05
2023-02-12T08:58:41.450Z,35.65
2023-02-12T08:59:23.383Z,37.45
2023-02-12T09:00:05.782Z,38.05
2023-02-12T09:00:47.500Z,35.97
2023-02-12T09:01:31.333Z,37.13
2023-02-12T09:02:13.164Z,37.05
2023-02-12T09:02:54.941Z,36.92
2023-02-12T09:03:36.874Z,36.90
2023-02-12T09:04:22.054Z,35.70
2023-02-12T09:05:05.867Z,37.00
2023-02-12T09:05:47.901Z,35.95
2023-02-12T09:06:32.915Z,34.83
2023-02-12T09:07:14.646Z,36.83
2023-02-12T09:07:56.406Z,36.22
2023-02-12T09:08:39.458Z,36.67
2023-02-12T09:09:21.824Z,35.08
2023-02-12T09:10:03.694Z,34.58
2023-02-12T09:10:46.045Z,35.97
2023-02-12T09:11:32.002Z,33.85
2023-02-12T09:12:13.728Z,35.65
2023-02-12T09:12:55.438Z,36.15
2023-02-12T09:13:37.361Z,34.65
2023-02-12T09:14:26.094Z,35.85
2023-02-12T09:15:08.173Z,34.22
2023-02-12T09:15:49.903Z,35.17
2023-02-12T09:16:33.437Z,35.97
2023-02-12T09:17:15.164Z,34.03
2023-02-12T09:17:57.727Z,34.75
2023-02-12T09:18:40.119Z,33.58
2023-02-12T09:19:22.250Z,34.40
2023-02-12T09:20:04.192Z,34.33
2023-02-12T09:20:46.041Z,34.00
2023-02-12T09:21:27.959Z,34.88
2023-02-12T09:22:09.663Z,36.67
2023-02-12T09:22:53.360Z,37.88
2023-02-12T09:23:36.950Z,37.97
2023-02-12T09:24:18.655Z,37.67
2023-02-12T09:25:00.395Z,37.15
2023-02-12T09:25:44.225Z,36.03
2023-02-12T09:26:26.262Z,34.80
2023-02-12T09:27:08.066Z,35.28
2023-02-12T09:27:49.810Z,35.60
2023-02-12T09:28:31.779Z,35.88
2023-02-12T09:29:13.594Z,35.88
2023-02-12T09:29:55.289Z,35.55
2023-02-12T09:30:38.537Z,36.35
2023-02-12T09:31:31.477Z,35.50
2023-02-12T09:32:13.402Z,33.60
2023-02-12T09:32:56.097Z,34.17
2023-02-12T09:33:38.232Z,33.40
2023-02-12T09:34:20.934Z,34.60
2023-02-12T09:35:02.745Z,35.05
2023-02-12T09:35:44.442Z,34.58
2023-02-12T09:36:26.485Z,33.33
2023-02-12T09:37:08.183Z,33.63
2023-02-12T09:37:50.237Z,34.38
2023-02-12T09:38:32.771Z,35.10
2023-02-12T09:39:14.540Z,34.25
2023-02-12T09:39:56.362Z,34.28
2023-02-12T09:40:56.925Z,33.97
2023-02-12T09:42:25.320Z,36.40
2023-02-12T09:43:26.400Z,34.33
2023-02-12T09:44:26.674Z,36.10
2023-02-12T09:45:22.730Z,37.10
2023-02-12T09:46:19.365Z,35.03